createdAt,value
2022-10-13T00:00:53.068Z,28.43
2022-10-13T00:03:58.753Z,15.27
2022-10-13T00:07:03.288Z,19.20
2022-10-13T00:10:12.034Z,13.93
2022-10-13T00:13:20.998Z,26.77
2022-10-13T00:16:27.117Z,15.83
2022-10-13T00:19:35.966Z,14.77
2022-10-13T00:22:45.953Z,19.20
2022-10-13T00:26:05.619Z,21.73
2022-10-13T00:29:11.851Z,25.17
2022-10-13T00:32:17.530Z,19.03
2022-10-13T00:35:27.014Z,13.67
2022-10-13T00:38:32.753Z,23.47
2022-10-13T00:41:39.529Z,21.37
2022-10-13T00:45:06.730Z,23.20
2022-10-13T00:48:14.203Z,23.63
2022-10-13T00:51:23.841Z,15.87
2022-10-13T00:54:30.367Z,24.17
2022-10-13T00:57:37.053Z,29.37
2022-10-13T01:00:46.835Z,19.43
2022-10-13T01:03:57.819Z,19.50
2022-10-13T01:07:02.475Z,28.60
2022-10-13T01:10:14.738Z,15.20
2022-10-13T01:13:28.733Z,15.10
2022-10-13T01:16:52.787Z,21.80
2022-10-13T01:20:45.152Z,19.57
2022-10-13T01:24:45.824Z,22.57
2022-10-13T01:28:10.440Z,20.90
2022-10-13T01:31:23.569Z,17.20
2022-10-13T01:34:38.634Z,15.37
2022-10-13T01:37:49.752Z,15.83
2022-10-13T01:41:17.959Z,23.30
2022-10-13T01:44:27.633Z,24.90
2022-10-13T01:47:38.496Z,24.10
2022-10-13T01:50:42.299Z,25.20
2022-10-13T01:53:55.379Z,14.43
2022-10-13T01:56:58.628Z,16.97
2022-10-13T02:00:11.763Z,19.93
2022-10-13T02:03:32.307Z,27.07
2022-10-13T02:06:45.448Z,22.37
2022-10-13T02:09:59.165Z,18.17
2022-10-13T02:13:17.985Z,28.67
2022-10-13T02:16:23.651Z,14.33
2022-10-13T02:19:30.008Z,16.27
2022-10-13T02:22:52.698Z,21.17
2022-10-13T02:26:06.646Z,14.63
2022-10-13T02:29:19.086Z,20.13
2022-10-13T02:32:24.215Z,18.07
2022-10-13T02:35:38.946Z,18.50
2022-10-13T02:38:42.551Z,16.17
2022-10-13T02:41:53.841Z,20.80
2022-10-13T02:44:59.791Z,21.10
2022-10-13T02:48:08.262Z,17.10
2022-10-13T02:51:12.989Z,18.50
2022-10-13T02:54:16.000Z,19.00
2022-10-13T02:57:26.599Z,18.47
2022-10-13T03:00:30.139Z,13.73
2022-10-13T03:03:37.407Z,13.47
2022-10-13T03:06:48.050Z,15.53
2022-10-13T03:09:56.749Z,16.67
2022-10-13T03:12:59.800Z,16.27
2022-10-13T03:16:03.325Z,12.93
2022-10-13T03:19:06.241Z,17.60
2022-10-13T03:22:14.477Z,22.07
2022-10-13T03:25:17.671Z,17.93
2022-10-13T03:28:21.467Z,11.87
2022-10-13T03:31:27.534Z,13.90
2022-10-13T03:34:38.057Z,11.50
2022-10-13T03:37:42.295Z,20.57
2022-10-13T03:40:45.234Z,27.10
2022-10-13T03:43:48.507Z,25.47
2022-10-13T03:46:52.060Z,22.80
2022-10-13T03:49:56.446Z,23.13
2022-10-13T03:53:00.676Z,18.93
2022-10-13T03:56:05.174Z,17.07
2022-10-13T03:59:12.959Z,14.97
2022-10-13T04:02:16.052Z,17.33
2022-10-13T04:05:18.977Z,15.63
2022-10-13T04:08:23.277Z,20.30
2022-10-13T04:11:26.451Z,16.63
2022-10-13T04:14:31.760Z,17.57
2022-10-13T04:17:44.539Z,18.97
2022-10-13T04:20:48.119Z,20.10
2022-10-13T04:23:52.413Z,15.70
2022-10-13T04:26:55.376Z,19.97
2022-10-13T04:29:58.600Z,13.87
2022-10-13T04:33:01.848Z,16.83
2022-10-13T04:36:05.520Z,17.87
2022-10-13T04:39:09.769Z,18.20
2022-10-13T04:42:12.724Z,15.77
2022-10-13T04:45:16.657Z,31.37
2022-10-13T04:48:25.542Z,24.40
2022-10-13T04:51:28.864Z,13.77
2022-10-13T04:54:33.367Z,15.63
2022-10-13T04:57:36.353Z,18.97
2022-10-13T05:00:39.352Z,15.93
2022-10-13T05:03:42.433Z,16.97
2022-10-13T05:07:12.638Z,19.47
2022-10-13T05:10:10.621Z,25.87
2022-10-13T05:13:13.553Z,17.33
2022-10-13T05:16:19.039Z,17.07
2022-10-13T05:19:22.272Z,19.50
2022-10-13T05:22:25.943Z,18.13
2022-10-13T05:25:33.708Z,17.97
2022-10-13T05:28:37.318Z,18.07
2022-10-13T05:31:44.390Z,16.87
2022-10-13T05:34:48.906Z,18.60
2022-10-13T05:37:51.980Z,21.73
2022-10-13T05:40:56.375Z,19.50
2022-10-13T05:44:02.027Z,18.77
2022-10-13T05:47:07.508Z,24.17
2022-10-13T05:50:11.600Z,19.87
2022-10-13T05:53:16.188Z,18.23
2022-10-13T05:56:25.084Z,22.47
2022-10-13T05:59:30.330Z,19.03
2022-10-13T06:02:40.290Z,19.77
2022-10-13T06:05:45.297Z,19.50
2022-10-13T06:08:48.403Z,26.50
2022-10-13T06:11:52.738Z,20.60
2022-10-13T06:14:58.040Z,20.23
2022-10-13T06:18:01.266Z,22.57
2022-10-13T06:21:04.404Z,23.87
2022-10-13T06:24:07.811Z,16.53
2022-10-13T06:27:12.676Z,18.13
2022-10-13T06:30:15.928Z,25.73
2022-10-13T06:33:18.859Z,20.03
2022-10-13T06:36:21.871Z,23.40
2022-10-13T06:39:26.370Z,23.03
2022-10-13T06:42:31.762Z,17.07
2022-10-13T06:45:45.062Z,19.87
2022-10-13T06:48:50.942Z,33.00
2022-10-13T06:51:53.884Z,29.37
2022-10-13T06:54:56.833Z,16.43
2022-10-13T06:58:01.455Z,22.90
2022-10-13T07:01:05.816Z,21.60
2022-10-13T07:04:09.139Z,36.60
2022-10-13T07:07:13.502Z,40.43
2022-10-13T07:10:16.683Z,24.63
2022-10-13T07:16:25.124Z,19.83
2022-10-13T07:19:28.599Z,22.37
2022-10-13T07:22:32.137Z,21.33
2022-10-13T07:25:35.071Z,21.77
2022-10-13T07:28:40.386Z,28.67
2022-10-13T07:31:44.797Z,23.83
2022-10-13T07:34:47.854Z,21.83
2022-10-13T07:37:53.679Z,23.90
2022-10-13T07:40:56.577Z,23.07
2022-10-13T07:44:00.866Z,20.03
2022-10-13T07:47:03.812Z,22.03
2022-10-13T07:50:07.520Z,21.03
2022-10-13T07:53:10.506Z,19.20
2022-10-13T07:56:15.764Z,25.23
2022-10-13T07:59:20.066Z,25.23
2022-10-13T08:02:23.144Z,21.30
2022-10-13T08:05:26.270Z,26.53
2022-10-13T08:08:29.403Z,22.33
2022-10-13T08:11:32.659Z,22.43
2022-10-13T08:14:37.248Z,34.33
2022-10-13T08:17:40.314Z,26.03
2022-10-13T08:20:45.333Z,26.90
2022-10-13T08:23:48.602Z,25.77
2022-10-13T08:26:52.337Z,22.07
2022-10-13T08:29:56.722Z,24.00
2022-10-13T08:32:59.666Z,19.77
2022-10-13T08:36:04.849Z,29.43
2022-10-13T08:39:08.486Z,26.07
2022-10-13T08:42:18.773Z,21.37
2022-10-13T08:45:40.894Z,21.03
2022-10-13T08:48:44.720Z,28.20
2022-10-13T08:51:47.769Z,29.37
2022-10-13T08:54:51.898Z,20.17
2022-10-13T08:57:56.312Z,26.57
2022-10-13T09:01:15.385Z,31.77
2022-10-13T09:04:30.308Z,22.33
2022-10-13T09:07:38.285Z,21.50
2022-10-13T09:10:49.806Z,23.43
2022-10-13T09:13:57.869Z,16.73
2022-10-13T09:17:19.533Z,23.03
2022-10-13T09:20:27.586Z,23.00
2022-10-13T09:23:30.535Z,22.77
2022-10-13T09:26:39.442Z,26.07
2022-10-13T09:29:43.440Z,25.93
2022-10-13T09:32:49.731Z,22.57
2022-10-13T09:36:13.380Z,21.30
2022-10-13T09:39:17.903Z,20.87
2022-10-13T09:42:27.188Z,21.40
2022-10-13T09:45:34.575Z,20.10
2022-10-13T09:48:42.318Z,19.80
2022-10-13T09:51:47.079Z,22.10
2022-10-13T09:55:00.632Z,24.20
2022-10-13T09:58:08.238Z,20.23
2022-10-13T10:01:22.913Z,22.10
2022-10-13T10:04:35.018Z,24.00
2022-10-13T10:07:40.350Z,20.70
2022-10-13T10:10:43.604Z,26.53
2022-10-13T10:13:46.821Z,19.53
2022-10-13T10:17:00.871Z,22.63
2022-10-13T10:20:30.220Z,24.73
2022-10-13T10:23:44.951Z,19.23
2022-10-13T10:26:57.142Z,21.67
2022-10-13T10:30:06.435Z,24.33
2022-10-13T10:33:14.706Z,22.83
2022-10-13T10:36:24.223Z,18.17
2022-10-13T10:39:38.003Z,24.10
2022-10-13T10:43:01.243Z,25.33
2022-10-13T10:46:12.824Z,23.02
2022-10-13T10:49:22.760Z,25.67
2022-10-13T10:52:34.223Z,29.48
2022-10-13T10:55:48.322Z,23.08
2022-10-13T10:59:00.360Z,29.40
2022-10-13T11:02:20.698Z,25.05
2022-10-13T11:05:24.129Z,20.02
2022-10-13T11:08:30.149Z,20.77
2022-10-13T11:11:39.781Z,23.05
2022-10-13T11:14:50.199Z,25.27
2022-10-13T11:17:53.646Z,21.95
2022-10-13T11:21:00.052Z,17.65
2022-10-13T11:24:04.321Z,25.25
2022-10-13T11:27:25.815Z,27.00
2022-10-13T11:30:49.923Z,22.67
2022-10-13T11:33:57.310Z,24.95
2022-10-13T11:37:03.018Z,18.75
2022-10-13T11:40:23.498Z,24.13
2022-10-13T11:43:41.212Z,25.42
2022-10-13T11:47:01.212Z,26.10
2022-10-13T11:50:16.138Z,22.23
2022-10-13T11:53:22.600Z,25.10
2022-10-13T11:56:39.701Z,20.60
2022-10-13T11:59:48.105Z,19.63
2022-10-13T12:02:53.984Z,18.50
2022-10-13T12:06:02.388Z,19.33
2022-10-13T12:09:15.402Z,16.98
2022-10-13T12:12:22.319Z,21.65
2022-10-13T12:15:37.579Z,20.65
2022-10-13T12:18:41.756Z,18.48
2022-10-13T12:21:51.232Z,27.25
2022-10-13T12:25:02.470Z,23.33
2022-10-13T12:28:08.487Z,15.45
2022-10-13T12:31:20.631Z,15.50
2022-10-13T12:34:28.372Z,21.10
2022-10-13T12:37:34.534Z,15.07
2022-10-13T12:40:37.730Z,19.38
2022-10-13T12:43:43.481Z,14.90
2022-10-13T12:46:48.900Z,21.73
2022-10-13T12:49:51.859Z,21.17
2022-10-13T12:53:02.871Z,15.85
2022-10-13T12:56:06.950Z,13.05
2022-10-13T12:59:18.775Z,16.83
2022-10-13T13:02:28.376Z,19.25
2022-10-13T13:05:33.234Z,23.15
2022-10-13T13:08:39.920Z,15.88
2022-10-13T13:11:42.939Z,16.92
2022-10-13T13:14:51.147Z,18.50
2022-10-13T13:17:59.364Z,16.67
2022-10-13T13:21:02.890Z,16.73
2022-10-13T13:24:16.231Z,16.52
2022-10-13T13:27:38.146Z,19.63
2022-10-13T13:30:43.796Z,17.42
2022-10-13T13:33:47.437Z,25.65
2022-10-13T13:36:51.401Z,17.10
2022-10-13T13:39:54.893Z,19.33
2022-10-13T13:42:57.867Z,16.15
2022-10-13T13:46:13.731Z,21.95
2022-10-13T13:49:16.728Z,19.05
2022-10-13T13:52:20.087Z,13.90
2022-10-13T13:55:23.390Z,20.23
2022-10-13T13:58:34.602Z,18.73
2022-10-13T14:01:42.615Z,20.65
2022-10-13T14:04:48.290Z,22.27
2022-10-13T14:07:58.116Z,14.88
2022-10-13T14:11:08.587Z,27.90
2022-10-13T14:14:11.787Z,33.90
2022-10-13T14:17:16.160Z,22.58
2022-10-13T14:20:19.412Z,24.00
2022-10-13T14:23:22.380Z,16.85
2022-10-13T14:26:25.335Z,20.60
2022-10-13T14:29:28.541Z,15.73
2022-10-13T14:32:32.820Z,19.77
2022-10-13T14:35:35.956Z,20.38
2022-10-13T14:38:40.528Z,23.77
2022-10-13T14:41:43.461Z,17.63
2022-10-13T14:44:46.502Z,16.98
2022-10-13T14:47:53.519Z,15.07
2022-10-13T14:50:56.606Z,24.52
2022-10-13T14:54:01.693Z,22.55
2022-10-13T14:57:05.978Z,14.55
2022-10-13T15:00:13.927Z,17.50
2022-10-13T15:03:24.298Z,14.68
2022-10-13T15:06:28.205Z,17.52
2022-10-13T15:09:45.478Z,21.08
2022-10-13T15:12:56.613Z,16.30
2022-10-13T15:16:06.884Z,27.40
2022-10-13T15:19:13.905Z,20.15
2022-10-13T15:22:16.965Z,18.17
2022-10-13T15:25:19.923Z,15.80
2022-10-13T15:28:23.703Z,14.80
2022-10-13T15:31:26.787Z,30.50
2022-10-13T15:34:31.071Z,21.45
2022-10-13T15:37:34.103Z,35.78
2022-10-13T15:40:40.593Z,27.70
2022-10-13T15:43:43.897Z,21.20
2022-10-13T15:47:06.702Z,34.75
2022-10-13T15:50:11.808Z,16.80
2022-10-13T15:53:14.753Z,17.90
2022-10-13T15:56:18.245Z,15.97
2022-10-13T15:59:21.228Z,46.88
2022-10-13T16:02:24.259Z,28.37
2022-10-13T16:05:28.639Z,30.50
2022-10-13T16:08:31.749Z,32.57
2022-10-13T16:11:34.921Z,22.90
2022-10-13T16:14:37.893Z,47.47
2022-10-13T16:17:40.904Z,23.03
2022-10-13T16:20:45.400Z,22.17
2022-10-13T16:23:49.385Z,30.50
2022-10-13T16:26:52.289Z,35.83
2022-10-13T16:29:55.284Z,54.70
2022-10-13T16:32:58.745Z,27.30
2022-10-13T16:36:09.233Z,36.60
2022-10-13T16:39:13.181Z,30.07
2022-10-13T16:42:16.125Z,34.30
2022-10-13T16:45:21.536Z,27.47
2022-10-13T16:48:34.188Z,28.63
2022-10-13T16:51:38.471Z,35.13
2022-10-13T16:54:41.390Z,43.60
2022-10-13T16:57:44.937Z,30.40
2022-10-13T17:00:48.046Z,33.90
2022-10-13T17:03:52.199Z,38.13
2022-10-13T17:06:56.455Z,39.07
2022-10-13T17:09:59.499Z,43.80
2022-10-13T17:13:02.825Z,37.53
2022-10-13T17:16:08.643Z,25.90
2022-10-13T17:19:14.208Z,40.27
2022-10-13T17:22:18.655Z,28.63
2022-10-13T17:25:21.721Z,40.03
2022-10-13T17:28:24.824Z,46.97
2022-10-13T17:31:28.005Z,45.67
2022-10-13T17:34:30.999Z,43.43
2022-10-13T17:37:36.900Z,33.67
2022-10-13T17:40:39.831Z,46.97
2022-10-13T17:43:44.238Z,45.37
2022-10-13T17:46:47.653Z,31.37
2022-10-13T17:49:50.649Z,47.30
2022-10-13T17:52:56.001Z,45.00
2022-10-13T17:56:01.671Z,35.47
2022-10-13T17:59:04.686Z,36.13
2022-10-13T18:02:07.989Z,36.37
2022-10-13T18:05:11.031Z,53.73
2022-10-13T18:08:15.280Z,34.13
2022-10-13T18:11:21.199Z,48.57
2022-10-13T18:14:25.790Z,41.70
2022-10-13T18:17:28.751Z,28.00
2022-10-13T18:20:31.954Z,55.03
2022-10-13T18:23:38.072Z,31.37
2022-10-13T18:26:41.225Z,48.93
2022-10-13T18:29:44.362Z,48.83
2022-10-13T18:32:47.359Z,45.80
2022-10-13T18:35:50.447Z,60.83
2022-10-13T18:38:57.251Z,41.77
2022-10-13T18:42:00.179Z,70.67
2022-10-13T18:45:11.594Z,105.07
2022-10-13T18:48:14.523Z,46.37
2022-10-13T18:51:19.443Z,45.20
2022-10-13T18:54:23.671Z,44.70
2022-10-13T18:57:26.567Z,55.07
2022-10-13T19:00:29.634Z,52.50
2022-10-13T19:03:33.760Z,56.47
2022-10-13T19:06:37.012Z,57.23
2022-10-13T19:09:41.250Z,62.47
2022-10-13T19:12:44.291Z,110.37
2022-10-13T19:15:47.450Z,61.27
2022-10-13T19:18:51.122Z,49.03
2022-10-13T19:21:54.108Z,42.77
2022-10-13T19:25:00.743Z,56.63
2022-10-13T19:28:03.679Z,46.13
2022-10-13T19:31:10.808Z,49.63
2022-10-13T19:34:14.726Z,52.77
2022-10-13T19:37:17.859Z,52.07
2022-10-13T19:40:22.408Z,47.33
2022-10-13T19:43:25.542Z,47.73
2022-10-13T19:46:28.518Z,44.30
2022-10-13T19:49:31.523Z,44.07
2022-10-13T19:52:34.675Z,51.50
2022-10-13T19:55:41.227Z,59.70
2022-10-13T19:58:44.171Z,52.83
2022-10-13T20:01:47.219Z,52.10
2022-10-13T20:04:50.134Z,70.27
2022-10-13T20:07:53.068Z,53.13
2022-10-13T20:10:57.336Z,59.93
2022-10-13T20:14:00.520Z,69.93
2022-10-13T20:17:03.774Z,54.50
2022-10-13T20:20:08.686Z,49.80
2022-10-13T20:23:11.822Z,63.93
2022-10-13T20:26:18.128Z,86.10
2022-10-13T20:29:21.116Z,60.97
2022-10-13T20:32:24.091Z,69.40
2022-10-13T20:35:27.339Z,48.90
2022-10-13T20:38:30.717Z,44.67
2022-10-13T20:41:35.069Z,48.17
2022-10-13T20:44:38.262Z,51.87
2022-10-13T20:47:41.188Z,53.07
2022-10-13T20:50:44.355Z,44.90
2022-10-13T20:53:48.511Z,41.37
2022-10-13T20:56:52.819Z,42.70
2022-10-13T20:59:55.779Z,41.70
2022-10-13T21:03:01.925Z,53.87
2022-10-13T21:06:10.817Z,52.20
2022-10-13T21:09:15.259Z,41.17
2022-10-13T21:12:19.949Z,48.10
2022-10-13T21:15:22.856Z,58.53
2022-10-13T21:18:25.847Z,48.07
2022-10-13T21:21:31.830Z,72.70
2022-10-13T21:24:34.946Z,47.83
2022-10-13T21:27:39.228Z,50.17
2022-10-13T21:30:42.302Z,47.83
2022-10-13T21:33:46.200Z,53.03
2022-10-13T21:36:49.117Z,45.13
2022-10-13T21:39:53.322Z,70.10
2022-10-13T21:42:57.543Z,51.53
2022-10-13T21:46:09.906Z,48.60
2022-10-13T21:49:14.881Z,78.43
2022-10-13T21:52:17.816Z,54.23
2022-10-13T21:55:20.799Z,58.53
2022-10-13T21:58:25.475Z,87.40
2022-10-13T22:01:30.216Z,71.60
2022-10-13T22:04:34.834Z,44.37
2022-10-13T22:07:37.811Z,46.37
2022-10-13T22:10:40.729Z,56.93
2022-10-13T22:13:45.274Z,64.70
2022-10-13T22:16:50.925Z,66.80
2022-10-13T22:19:53.922Z,58.60
2022-10-13T22:22:56.849Z,57.60
2022-10-13T22:26:00.740Z,57.60
2022-10-13T22:29:07.531Z,65.50
2022-10-13T22:32:10.568Z,49.27
2022-10-13T22:35:13.464Z,46.53
2022-10-13T22:38:16.499Z,45.60
2022-10-13T22:41:21.222Z,55.07
2022-10-13T22:44:25.729Z,54.60
2022-10-13T22:47:28.637Z,50.60
2022-10-13T22:50:35.571Z,40.40
2022-10-13T22:53:38.806Z,50.73
2022-10-13T22:56:43.106Z,42.93
2022-10-13T22:59:47.811Z,44.10
2022-10-13T23:02:51.127Z,72.80
2022-10-13T23:05:54.085Z,47.77
2022-10-13T23:08:57.780Z,51.80
2022-10-13T23:12:00.702Z,50.93
2022-10-13T23:15:07.200Z,54.47
2022-10-13T23:18:10.125Z,46.87
2022-10-13T23:21:16.323Z,51.17
2022-10-13T23:24:19.267Z,44.13
2022-10-13T23:27:22.980Z,45.30
2022-10-13T23:30:31.831Z,59.60
2022-10-13T23:33:38.216Z,63.47
2022-10-13T23:36:42.916Z,52.50
2022-10-13T23:39:46.948Z,51.03
2022-10-13T23:42:53.273Z,39.63
2022-10-13T23:45:57.660Z,49.37
2022-10-13T23:49:00.710Z,55.90
2022-10-13T23:52:08.542Z,47.13
2022-10-13T23:55:14.079Z,43.03
2022-10-13T23:58:17.284Z,47.77
